Terminal Aerodrome Forecast
Issued by NWS

Home | Current Version | Previous Version | Text Only | Print | Product List | Glossary On
Versions: 1 2 3 4 5 6 7 8 9 10 11 12 13 14 15 16 17 18 19 20 21 22
000
FTUS46 KOTX 300221 AAB
TAFPUW
TAF AMD
KPUW 300221Z 3002/3024 24014KT P6SM VCSH FEW025 BKN150
     FM300600 24008KT P6SM BKN010 OVC030
     FM301300 25010G17KT P6SM SCT015 BKN200
     FM302000 25013G21KT P6SM -SHRA SCT030 BKN050=

USA.gov is the U.S. government's official web portal to all federal, state and local government web resources and services.